Government of Jersey

Home Log in

METAR EGJJ 030120Z AUTO 29004KT 230V320 9999 FEW028/// 05/02 Q0998

METAR EGJB 030050Z 29004KT 9999 FEW024 05/M00 Q0997

METAR LFRD 030130Z AUTO 22006KT 9999 FEW041 02/01 Q0999 TEMPO 3000 SHRA BKN012 BKN020CB

METAR LFRC 030130Z AUTO 26006KT 9999 FEW003/// SCT026/// 03/01 Q0998